Strona główna
METAR-TAF:

METAR-TAF

Lotnisko :

Auburn, Indiana, Stany Zjednoczone

Szerokość geograficzna: 41-18-26N, Długość geograficzna: 085-03-52W, wysokość: 268 m

Aktualna obserwacja pogody

Raport powstał 26 minut temu, godzina 06:35 UTC
Cisza
Temperatura -1°C
Wilgotność 74%
Ciśnienie 1022 hPa
Widzialność: 16.1 km
bezchmurnie

METAR: KGWB 230635Z AUTO 00000KT 10SM CLR M01/M05 A3019 RMK AO2

czas: 02:01 (07:01 UTC)


TAF: brakujący

Obserwacja i prognoza pogody dla ponad 4000 lotnisk (raport METAR i TAF).

Dostępne stacje oznaczono żółtymi i czerwonymi punktami na mapie.

Najedź kursorem aby zobaczyć nazwę stacji.

Kliknij aby zobaczyć obserwacje i prognozy pogody.

Aby zmienić mapę: kliknij na zielony przycisk z czarnym krzyżykiem, aby powiększyć; na zielony przycisk z myślnikiem, aby pomniejszyć; na zielone strzałki, aby przejść do map sąsiednich.


METAR-TAF: